sensor_id;sensor_type;location;lat;lon;timestamp;pressure;altitude;pressure_sealevel;temperature;humidity
7966;BME280;4028;43.272;26.932;2022-11-18T00:00:54;98094.53;;;11.87;100.00
7966;BME280;4028;43.272;26.932;2022-11-18T00:03:20;98101.84;;;11.85;100.00
7966;BME280;4028;43.272;26.932;2022-11-18T00:05:55;98096.22;;;11.80;100.00
7966;BME280;4028;43.272;26.932;2022-11-18T00:08:22;98101.38;;;11.82;100.00
7966;BME280;4028;43.272;26.932;2022-11-18T00:10:48;98108.97;;;11.85;100.00
7966;BME280;4028;43.272;26.932;2022-11-18T00:13:13;98100.50;;;11.81;100.00
7966;BME280;4028;43.272;26.932;2022-11-18T00:16:02;98092.28;;;11.76;100.00
7966;BME280;4028;43.272;26.932;2022-11-18T00:18:28;98099.63;;;11.66;100.00
7966;BME280;4028;43.272;26.932;2022-11-18T00:20:53;98099.47;;;11.67;100.00
7966;BME280;4028;43.272;26.932;2022-11-18T00:23:19;98103.94;;;11.67;100.00
7966;BME280;4028;43.272;26.932;2022-11-18T00:25:44;98114.06;;;11.63;100.00
7966;BME280;4028;43.272;26.932;2022-11-18T00:28:10;98115.06;;;11.62;100.00
7966;BME280;4028;43.272;26.932;2022-11-18T00:30:35;98105.34;;;11.55;100.00
7966;BME280;4028;43.272;26.932;2022-11-18T00:33:00;98103.22;;;11.50;100.00
7966;BME280;4028;43.272;26.932;2022-11-18T00:35:26;98108.16;;;11.53;100.00
7966;BME280;4028;43.272;26.932;2022-11-18T00:37:51;98107.06;;;11.48;100.00
7966;BME280;4028;43.272;26.932;2022-11-18T00:40:17;98106.34;;;11.54;100.00
7966;BME280;4028;43.272;26.932;2022-11-18T00:42:42;98092.78;;;11.49;100.00
7966;BME280;4028;43.272;26.932;2022-11-18T00:45:21;98100.09;;;11.47;100.00
7966;BME280;4028;43.272;26.932;2022-11-18T00:47:47;98104.91;;;11.43;100.00
7966;BME280;4028;43.272;26.932;2022-11-18T00:50:13;98089.88;;;11.35;100.00
7966;BME280;4028;43.272;26.932;2022-11-18T00:52:39;98087.22;;;11.35;100.00
7966;BME280;4028;43.272;26.932;2022-11-18T00:55:04;98093.19;;;11.37;100.00
7966;BME280;4028;43.272;26.932;2022-11-18T00:57:30;98099.09;;;11.48;100.00
7966;BME280;4028;43.272;26.932;2022-11-18T00:59:56;98102.75;;;11.47;100.00
7966;BME280;4028;43.272;26.932;2022-11-18T01:02:21;98091.19;;;11.39;100.00
7966;BME280;4028;43.272;26.932;2022-11-18T01:04:47;98095.47;;;11.40;100.00
7966;BME280;4028;43.272;26.932;2022-11-18T01:07:12;98091.56;;;11.36;100.00
7966;BME280;4028;43.272;26.932;2022-11-18T01:09:38;98085.59;;;11.34;100.00
7966;BME280;4028;43.272;26.932;2022-11-18T01:12:04;98090.03;;;11.42;100.00
7966;BME280;4028;43.272;26.932;2022-11-18T01:14:48;98079.22;;;11.52;100.00
7966;BME280;4028;43.272;26.932;2022-11-18T01:17:13;98077.09;;;11.47;100.00
7966;BME280;4028;43.272;26.932;2022-11-18T01:19:39;98077.53;;;11.51;100.00
7966;BME280;4028;43.272;26.932;2022-11-18T01:22:04;98092.63;;;11.50;100.00
7966;BME280;4028;43.272;26.932;2022-11-18T01:24:30;98097.78;;;11.43;100.00
7966;BME280;4028;43.272;26.932;2022-11-18T01:26:56;98073.34;;;11.33;100.00
7966;BME280;4028;43.272;26.932;2022-11-18T01:29:21;98093.19;;;11.37;100.00
7966;BME280;4028;43.272;26.932;2022-11-18T01:31:47;98089.06;;;11.35;100.00
7966;BME280;4028;43.272;26.932;2022-11-18T01:34:12;98089.72;;;11.37;100.00
7966;BME280;4028;43.272;26.932;2022-11-18T01:36:38;98084.56;;;11.43;100.00
7966;BME280;4028;43.272;26.932;2022-11-18T01:39:03;98089.31;;;11.48;100.00
7966;BME280;4028;43.272;26.932;2022-11-18T01:41:29;98088.97;;;11.51;100.00
7966;BME280;4028;43.272;26.932;2022-11-18T01:44:52;98091.50;;;11.44;100.00
7966;BME280;4028;43.272;26.932;2022-11-18T01:46:51;98085.38;;;11.44;100.00
7966;BME280;4028;43.272;26.932;2022-11-18T01:49:16;98074.47;;;11.39;100.00
7966;BME280;4028;43.272;26.932;2022-11-18T01:51:51;98083.25;;;11.39;100.00
7966;BME280;4028;43.272;26.932;2022-11-18T01:54:24;98083.94;;;11.33;100.00
7966;BME280;4028;43.272;26.932;2022-11-18T01:56:53;98069.88;;;11.02;100.00
7966;BME280;4028;43.272;26.932;2022-11-18T01:59:25;98086.91;;;11.07;100.00
7966;BME280;4028;43.272;26.932;2022-11-18T02:01:54;98092.69;;;11.11;100.00
7966;BME280;4028;43.272;26.932;2022-11-18T02:04:20;98092.00;;;11.09;100.00
7966;BME280;4028;43.272;26.932;2022-11-18T02:06:46;98096.00;;;11.05;100.00
7966;BME280;4028;43.272;26.932;2022-11-18T02:09:13;98092.19;;;11.07;100.00
7966;BME280;4028;43.272;26.932;2022-11-18T02:11:39;98089.75;;;10.98;100.00
7966;BME280;4028;43.272;26.932;2022-11-18T02:14:33;98103.31;;;10.94;100.00
7966;BME280;4028;43.272;26.932;2022-11-18T02:17:03;98096.25;;;10.87;100.00
7966;BME280;4028;43.272;26.932;2022-11-18T02:27:41;98103.56;;;10.68;100.00
7966;BME280;4028;43.272;26.932;2022-11-18T02:30:12;98106.53;;;10.74;100.00
7966;BME280;4028;43.272;26.932;2022-11-18T02:35:35;98107.22;;;10.59;100.00
7966;BME280;4028;43.272;26.932;2022-11-18T02:38:27;98109.09;;;10.43;100.00
7966;BME280;4028;43.272;26.932;2022-11-18T02:40:58;98107.44;;;10.33;100.00
7966;BME280;4028;43.272;26.932;2022-11-18T02:43:32;98085.59;;;10.23;100.00
7966;BME280;4028;43.272;26.932;2022-11-18T02:46:02;98094.91;;;10.27;100.00
7966;BME280;4028;43.272;26.932;2022-11-18T02:48:31;98103.66;;;10.28;100.00
7966;BME280;4028;43.272;26.932;2022-11-18T02:51:00;98075.22;;;10.05;100.00
7966;BME280;4028;43.272;26.932;2022-11-18T02:53:30;98096.72;;;10.10;100.00
7966;BME280;4028;43.272;26.932;2022-11-18T02:55:58;98100.81;;;10.21;100.00
7966;BME280;4028;43.272;26.932;2022-11-18T02:58:24;98098.53;;;10.26;100.00
7966;BME280;4028;43.272;26.932;2022-11-18T03:00:55;98084.31;;;10.11;100.00
7966;BME280;4028;43.272;26.932;2022-11-18T03:08:42;98099.19;;;10.12;100.00
7966;BME280;4028;43.272;26.932;2022-11-18T03:11:24;98100.50;;;10.08;100.00
7966;BME280;4028;43.272;26.932;2022-11-18T03:16:55;98114.22;;;10.03;100.00
7966;BME280;4028;43.272;26.932;2022-11-18T03:19:32;98115.53;;;10.07;100.00
7966;BME280;4028;43.272;26.932;2022-11-18T03:22:33;98120.16;;;9.97;100.00
7966;BME280;4028;43.272;26.932;2022-11-18T03:25:13;98129.56;;;9.92;100.00
7966;BME280;4028;43.272;26.932;2022-11-18T03:28:00;98125.94;;;9.93;100.00
7966;BME280;4028;43.272;26.932;2022-11-18T03:30:30;98116.19;;;9.85;100.00
7966;BME280;4028;43.272;26.932;2022-11-18T03:33:10;98109.41;;;9.82;100.00
7966;BME280;4028;43.272;26.932;2022-11-18T03:35:38;98111.06;;;9.92;100.00
7966;BME280;4028;43.272;26.932;2022-11-18T03:38:10;98103.16;;;9.83;100.00
7966;BME280;4028;43.272;26.932;2022-11-18T03:40:38;98105.81;;;9.83;100.00
7966;BME280;4028;43.272;26.932;2022-11-18T03:43:11;98107.75;;;9.81;100.00
7966;BME280;4028;43.272;26.932;2022-11-18T03:45:43;98100.31;;;9.77;100.00
7966;BME280;4028;43.272;26.932;2022-11-18T03:48:14;98098.84;;;9.82;100.00
7966;BME280;4028;43.272;26.932;2022-11-18T03:50:58;98094.72;;;9.72;100.00
7966;BME280;4028;43.272;26.932;2022-11-18T03:53:27;98094.22;;;9.68;100.00
7966;BME280;4028;43.272;26.932;2022-11-18T03:56:01;98094.53;;;9.65;100.00
7966;BME280;4028;43.272;26.932;2022-11-18T03:58:39;98095.03;;;9.60;100.00
7966;BME280;4028;43.272;26.932;2022-11-18T04:01:20;98086.28;;;9.60;100.00
7966;BME280;4028;43.272;26.932;2022-11-18T04:03:49;98087.09;;;9.60;100.00
7966;BME280;4028;43.272;26.932;2022-11-18T04:09:08;98091.38;;;9.45;100.00
7966;BME280;4028;43.272;26.932;2022-11-18T04:11:42;98092.53;;;9.43;100.00
7966;BME280;4028;43.272;26.932;2022-11-18T04:14:42;98080.66;;;9.38;100.00
7966;BME280;4028;43.272;26.932;2022-11-18T04:17:15;98100.91;;;9.30;100.00
7966;BME280;4028;43.272;26.932;2022-11-18T04:19:41;98091.00;;;9.24;100.00
7966;BME280;4028;43.272;26.932;2022-11-18T04:22:08;98102.06;;;9.35;100.00
7966;BME280;4028;43.272;26.932;2022-11-18T04:24:34;98114.25;;;9.20;100.00
7966;BME280;4028;43.272;26.932;2022-11-18T04:26:59;98107.97;;;9.21;100.00
7966;BME280;4028;43.272;26.932;2022-11-18T04:29:27;98118.38;;;9.23;100.00
7966;BME280;4028;43.272;26.932;2022-11-18T04:31:53;98109.59;;;9.14;100.00
7966;BME280;4028;43.272;26.932;2022-11-18T04:34:18;98124.31;;;9.25;100.00
7966;BME280;4028;43.272;26.932;2022-11-18T04:36:43;98127.31;;;9.22;100.00
7966;BME280;4028;43.272;26.932;2022-11-18T04:39:09;98125.97;;;9.26;100.00
7966;BME280;4028;43.272;26.932;2022-11-18T04:41:34;98117.91;;;9.27;100.00
7966;BME280;4028;43.272;26.932;2022-11-18T04:44:19;98132.16;;;9.43;100.00
7966;BME280;4028;43.272;26.932;2022-11-18T04:46:44;98107.34;;;9.27;100.00
7966;BME280;4028;43.272;26.932;2022-11-18T04:49:11;98129.28;;;9.28;100.00
7966;BME280;4028;43.272;26.932;2022-11-18T04:51:39;98122.50;;;9.25;100.00
7966;BME280;4028;43.272;26.932;2022-11-18T04:54:05;98110.94;;;9.18;100.00
7966;BME280;4028;43.272;26.932;2022-11-18T04:56:31;98121.50;;;9.26;100.00
7966;BME280;4028;43.272;26.932;2022-11-18T04:59:01;98125.47;;;9.22;100.00
7966;BME280;4028;43.272;26.932;2022-11-18T05:01:27;98133.41;;;9.22;100.00
7966;BME280;4028;43.272;26.932;2022-11-18T05:03:54;98133.53;;;9.21;100.00
7966;BME280;4028;43.272;26.932;2022-11-18T05:06:20;98131.88;;;9.20;100.00
7966;BME280;4028;43.272;26.932;2022-11-18T05:08:46;98127.09;;;9.15;100.00
7966;BME280;4028;43.272;26.932;2022-11-18T05:11:11;98126.44;;;9.13;100.00
7966;BME280;4028;43.272;26.932;2022-11-18T05:13:55;98135.66;;;9.09;100.00
7966;BME280;4028;43.272;26.932;2022-11-18T05:16:21;98127.09;;;9.15;100.00
7966;BME280;4028;43.272;26.932;2022-11-18T05:18:46;98129.28;;;9.28;100.00
7966;BME280;4028;43.272;26.932;2022-11-18T05:21:12;98125.81;;;9.27;100.00
7966;BME280;4028;43.272;26.932;2022-11-18T05:23:37;98126.47;;;9.29;100.00
7966;BME280;4028;43.272;26.932;2022-11-18T05:26:04;98125.47;;;9.22;100.00
7966;BME280;4028;43.272;26.932;2022-11-18T05:28:30;98125.47;;;9.22;100.00
7966;BME280;4028;43.272;26.932;2022-11-18T05:30:55;98121.50;;;9.26;100.00
7966;BME280;4028;43.272;26.932;2022-11-18T05:33:21;98120.22;;;9.30;100.00
7966;BME280;4028;43.272;26.932;2022-11-18T05:35:46;98103.03;;;9.18;100.00
7966;BME280;4028;43.272;26.932;2022-11-18T05:38:12;98119.88;;;9.25;100.00
7966;BME280;4028;43.272;26.932;2022-11-18T05:40:37;98116.56;;;9.23;100.00
7966;BME280;4028;43.272;26.932;2022-11-18T05:43:03;98125.81;;;9.27;100.00
7966;BME280;4028;43.272;26.932;2022-11-18T05:45:42;98123.69;;;9.31;100.00
7966;BME280;4028;43.272;26.932;2022-11-18T05:48:08;98105.69;;;9.26;100.00
7966;BME280;4028;43.272;26.932;2022-11-18T05:50:35;98123.53;;;9.41;100.00
7966;BME280;4028;43.272;26.932;2022-11-18T05:53:02;98114.97;;;9.38;100.00
7966;BME280;4028;43.272;26.932;2022-11-18T05:55:37;98121.25;;;9.37;100.00
7966;BME280;4028;43.272;26.932;2022-11-18T05:58:04;98127.19;;;9.40;100.00
7966;BME280;4028;43.272;26.932;2022-11-18T06:00:30;98141.72;;;9.44;100.00
7966;BME280;4028;43.272;26.932;2022-11-18T06:02:56;98140.72;;;9.45;100.00
7966;BME280;4028;43.272;26.932;2022-11-18T06:05:23;98149.28;;;9.47;100.00
7966;BME280;4028;43.272;26.932;2022-11-18T06:07:49;98140.06;;;9.43;100.00
7966;BME280;4028;43.272;26.932;2022-11-18T06:10:30;98144.88;;;9.47;100.00
7966;BME280;4028;43.272;26.932;2022-11-18T06:13:01;98152.97;;;9.54;100.00
7966;BME280;4028;43.272;26.932;2022-11-18T06:15:35;98159.41;;;9.59;100.00
7966;BME280;4028;43.272;26.932;2022-11-18T06:18:06;98163.34;;;9.55;100.00
7966;BME280;4028;43.272;26.932;2022-11-18T06:20:36;98149.19;;;9.64;100.00
7966;BME280;4028;43.272;26.932;2022-11-18T06:23:02;98158.25;;;9.62;100.00
7966;BME280;4028;43.272;26.932;2022-11-18T06:25:28;98167.69;;;9.64;100.00
7966;BME280;4028;43.272;26.932;2022-11-18T06:27:56;98167.84;;;9.63;100.00
7966;BME280;4028;43.272;26.932;2022-11-18T06:30:23;98174.13;;;9.70;100.00
7966;BME280;4028;43.272;26.932;2022-11-18T06:32:48;98166.38;;;9.77;100.00
7966;BME280;4028;43.272;26.932;2022-11-18T06:35:14;98158.63;;;9.75;100.00
7966;BME280;4028;43.272;26.932;2022-11-18T06:37:40;98158.78;;;9.74;100.00
7966;BME280;4028;43.272;26.932;2022-11-18T06:40:06;98160.59;;;9.81;100.00
7966;BME280;4028;43.272;26.932;2022-11-18T06:42:31;98165.91;;;9.89;100.00
7966;BME280;4028;43.272;26.932;2022-11-18T06:45:15;98155.00;;;9.93;100.00
7966;BME280;4028;43.272;26.932;2022-11-18T06:47:41;98159.97;;;10.12;100.00
7966;BME280;4028;43.272;26.932;2022-11-18T06:50:07;98163.13;;;10.32;100.00
7966;BME280;4028;43.272;26.932;2022-11-18T06:52:32;98147.56;;;10.53;100.00
7966;BME280;4028;43.272;26.932;2022-11-18T06:54:58;98148.81;;;10.90;100.00
7966;BME280;4028;43.272;26.932;2022-11-18T06:57:23;98145.56;;;11.27;100.00
7966;BME280;4028;43.272;26.932;2022-11-18T06:59:49;98147.63;;;11.71;100.00
7966;BME280;4028;43.272;26.932;2022-11-18T07:02:14;98139.66;;;12.25;100.00
7966;BME280;4028;43.272;26.932;2022-11-18T07:04:43;98136.50;;;12.74;100.00
7966;BME280;4028;43.272;26.932;2022-11-18T07:07:09;98136.53;;;13.18;100.00
7966;BME280;4028;43.272;26.932;2022-11-18T07:09:35;98134.25;;;13.66;100.00
7966;BME280;4028;43.272;26.932;2022-11-18T07:12:01;98119.16;;;14.10;100.00
7966;BME280;4028;43.272;26.932;2022-11-18T07:14:26;98121.06;;;14.44;100.00
7966;BME280;4028;43.272;26.932;2022-11-18T07:16:52;98115.91;;;14.64;100.00
7966;BME280;4028;43.272;26.932;2022-11-18T07:19:17;98125.50;;;14.93;100.00
7966;BME280;4028;43.272;26.932;2022-11-18T07:21:43;98115.66;;;14.87;100.00
7966;BME280;4028;43.272;26.932;2022-11-18T07:24:11;98126.44;;;15.13;100.00
7966;BME280;4028;43.272;26.932;2022-11-18T07:26:37;98124.06;;;15.31;100.00
7966;BME280;4028;43.272;26.932;2022-11-18T07:29:03;98128.25;;;15.60;100.00
7966;BME280;4028;43.272;26.932;2022-11-18T07:31:29;98117.69;;;15.80;100.00
7966;BME280;4028;43.272;26.932;2022-11-18T07:33:54;98111.16;;;16.09;100.00
7966;BME280;4028;43.272;26.932;2022-11-18T07:36:25;98119.16;;;16.43;100.00
7966;BME280;4028;43.272;26.932;2022-11-18T07:38:51;98106.22;;;16.46;100.00
7966;BME280;4028;43.272;26.932;2022-11-18T07:41:25;98122.84;;;16.81;99.32
7966;BME280;4028;43.272;26.932;2022-11-18T07:43:53;98104.88;;;17.22;94.63
7966;BME280;4028;43.272;26.932;2022-11-18T07:46:26;98110.88;;;17.55;86.89
7966;BME280;4028;43.272;26.932;2022-11-18T07:48:54;98110.47;;;17.97;82.32
7966;BME280;4028;43.272;26.932;2022-11-18T07:51:22;98106.59;;;18.42;75.30
7966;BME280;4028;43.272;26.932;2022-11-18T07:53:48;98114.84;;;18.91;70.44
7966;BME280;4028;43.272;26.932;2022-11-18T07:56:15;98114.75;;;19.34;65.69
7966;BME280;4028;43.272;26.932;2022-11-18T07:58:41;98114.28;;;19.74;63.09
7966;BME280;4028;43.272;26.932;2022-11-18T08:01:11;98110.91;;;19.79;59.57
7966;BME280;4028;43.272;26.932;2022-11-18T08:03:37;98070.69;;;19.90;58.91
7966;BME280;4028;43.272;26.932;2022-11-18T08:06:05;98099.97;;;20.45;57.16
7966;BME280;4028;43.272;26.932;2022-11-18T08:08:31;98110.53;;;20.70;55.59
7966;BME280;4028;43.272;26.932;2022-11-18T08:10:58;98116.13;;;20.81;55.39
7966;BME280;4028;43.272;26.932;2022-11-18T08:13:25;98115.19;;;20.63;55.72
7966;BME280;4028;43.272;26.932;2022-11-18T08:15:51;98086.66;;;20.39;55.69
7966;BME280;4028;43.272;26.932;2022-11-18T08:18:17;98114.38;;;20.63;55.27
7966;BME280;4028;43.272;26.932;2022-11-18T08:20:43;98099.28;;;20.62;54.99
7966;BME280;4028;43.272;26.932;2022-11-18T08:23:12;98110.41;;;20.65;54.58
7966;BME280;4028;43.272;26.932;2022-11-18T08:25:38;98106.78;;;20.48;55.73
7966;BME280;4028;43.272;26.932;2022-11-18T08:28:04;98113.59;;;20.20;57.61
7966;BME280;4028;43.272;26.932;2022-11-18T08:30:29;98115.00;;;20.23;57.84
7966;BME280;4028;43.272;26.932;2022-11-18T08:32:56;98125.56;;;20.06;56.79
7966;BME280;4028;43.272;26.932;2022-11-18T08:35:22;98106.06;;;19.87;58.00
7966;BME280;4028;43.272;26.932;2022-11-18T08:37:47;98093.72;;;19.49;58.22
7966;BME280;4028;43.272;26.932;2022-11-18T08:40:13;98105.97;;;19.09;59.59
7966;BME280;4028;43.272;26.932;2022-11-18T08:42:38;98108.59;;;18.79;61.27
7966;BME280;4028;43.272;26.932;2022-11-18T08:45:05;98103.88;;;18.74;62.15
7966;BME280;4028;43.272;26.932;2022-11-18T08:47:33;98098.69;;;18.79;63.19
7966;BME280;4028;43.272;26.932;2022-11-18T08:49:59;98095.34;;;18.84;61.59
7966;BME280;4028;43.272;26.932;2022-11-18T08:52:24;98115.84;;;18.72;62.73
7966;BME280;4028;43.272;26.932;2022-11-18T08:54:50;98100.81;;;18.45;64.64
7966;BME280;4028;43.272;26.932;2022-11-18T08:57:15;98104.56;;;18.69;65.38
7966;BME280;4028;43.272;26.932;2022-11-18T08:59:41;98104.19;;;18.84;64.88
7966;BME280;4028;43.272;26.932;2022-11-18T09:02:20;98109.03;;;19.12;63.94
7966;BME280;4028;43.272;26.932;2022-11-18T09:04:50;98092.34;;;19.29;62.20
7966;BME280;4028;43.272;26.932;2022-11-18T09:07:19;98089.66;;;19.29;62.61
7966;BME280;4028;43.272;26.932;2022-11-18T09:09:45;98081.59;;;19.47;61.74
7966;BME280;4028;43.272;26.932;2022-11-18T09:12:11;98080.19;;;19.74;61.36
7966;BME280;4028;43.272;26.932;2022-11-18T09:14:44;98070.34;;;19.98;60.71
7966;BME280;4028;43.272;26.932;2022-11-18T09:17:10;98062.41;;;19.92;60.27
7966;BME280;4028;43.272;26.932;2022-11-18T09:19:36;98072.38;;;20.15;59.50
7966;BME280;4028;43.272;26.932;2022-11-18T09:22:03;98068.22;;;20.42;59.60
7966;BME280;4028;43.272;26.932;2022-11-18T09:24:29;98062.38;;;20.69;57.71
7966;BME280;4028;43.272;26.932;2022-11-18T09:26:54;98051.97;;;20.84;57.89
7966;BME280;4028;43.272;26.932;2022-11-18T09:29:19;98050.44;;;20.88;56.29
7966;BME280;4028;43.272;26.932;2022-11-18T09:31:49;98044.78;;;21.01;56.26
7966;BME280;4028;43.272;26.932;2022-11-18T09:34:15;98033.41;;;21.11;56.25
7966;BME280;4028;43.272;26.932;2022-11-18T09:36:40;98035.00;;;21.36;55.78
7966;BME280;4028;43.272;26.932;2022-11-18T09:39:06;98044.34;;;21.45;55.82
7966;BME280;4028;43.272;26.932;2022-11-18T09:47:32;98028.34;;;21.26;57.02
7966;BME280;4028;43.272;26.932;2022-11-18T09:50:09;98024.50;;;21.22;57.37
7966;BME280;4028;43.272;26.932;2022-11-18T09:52:42;98017.94;;;21.18;56.92
7966;BME280;4028;43.272;26.932;2022-11-18T09:55:15;98019.22;;;21.27;58.00
7966;BME280;4028;43.272;26.932;2022-11-18T09:57:59;98003.72;;;21.46;57.68
7966;BME280;4028;43.272;26.932;2022-11-18T10:00:28;98006.72;;;21.21;57.69
7966;BME280;4028;43.272;26.932;2022-11-18T10:03:06;98005.31;;;21.31;58.72
7966;BME280;4028;43.272;26.932;2022-11-18T10:14:01;97975.91;;;21.29;58.67
7966;BME280;4028;43.272;26.932;2022-11-18T10:24:51;97957.72;;;20.91;59.93
7966;BME280;4028;43.272;26.932;2022-11-18T10:27:18;97956.66;;;20.92;60.25
7966;BME280;4028;43.272;26.932;2022-11-18T10:29:47;97957.06;;;20.84;60.79
7966;BME280;4028;43.272;26.932;2022-11-18T10:32:18;97956.03;;;21.01;61.77
7966;BME280;4028;43.272;26.932;2022-11-18T10:37:28;97954.88;;;21.09;62.76
7966;BME280;4028;43.272;26.932;2022-11-18T10:39:59;97955.91;;;21.08;63.82
7966;BME280;4028;43.272;26.932;2022-11-18T10:42:34;97948.06;;;21.07;64.99
7966;BME280;4028;43.272;26.932;2022-11-18T10:45:34;97940.19;;;21.17;66.31
7966;BME280;4028;43.272;26.932;2022-11-18T10:48:17;97945.00;;;20.86;67.27
7966;BME280;4028;43.272;26.932;2022-11-18T10:50:45;97943.03;;;20.82;69.96
7966;BME280;4028;43.272;26.932;2022-11-18T10:53:28;97945.00;;;20.86;69.70
7966;BME280;4028;43.272;26.932;2022-11-18T10:58:24;97934.22;;;20.58;75.48
7966;BME280;4028;43.272;26.932;2022-11-18T11:00:51;97936.00;;;20.17;83.84
7966;BME280;4028;43.272;26.932;2022-11-18T11:05:44;97929.69;;;19.99;91.14
7966;BME280;4028;43.272;26.932;2022-11-18T11:08:22;97928.53;;;19.84;95.72
7966;BME280;4028;43.272;26.932;2022-11-18T11:10:56;97927.13;;;19.93;97.67
7966;BME280;4028;43.272;26.932;2022-11-18T11:13:26;97919.53;;;19.90;92.71
7966;BME280;4028;43.272;26.932;2022-11-18T11:15:54;97923.97;;;19.84;96.60
7966;BME280;4028;43.272;26.932;2022-11-18T11:18:24;97920.34;;;19.79;100.00
7966;BME280;4028;43.272;26.932;2022-11-18T11:21:16;97911.59;;;19.60;100.00
7966;BME280;4028;43.272;26.932;2022-11-18T11:23:43;97898.97;;;19.60;100.00
7966;BME280;4028;43.272;26.932;2022-11-18T11:26:14;97892.59;;;19.61;100.00
7966;BME280;4028;43.272;26.932;2022-11-18T11:40:28;97866.66;;;19.55;100.00
7966;BME280;4028;43.272;26.932;2022-11-18T11:51:06;97849.59;;;19.49;100.00
7966;BME280;4028;43.272;26.932;2022-11-18T11:53:45;97862.03;;;19.62;100.00
7966;BME280;4028;43.272;26.932;2022-11-18T11:56:35;97856.16;;;19.65;100.00
7966;BME280;4028;43.272;26.932;2022-11-18T12:07:55;97852.69;;;19.65;100.00
7966;BME280;4028;43.272;26.932;2022-11-18T12:10:28;97845.78;;;19.57;100.00
7966;BME280;4028;43.272;26.932;2022-11-18T12:13:20;97852.41;;;19.55;100.00
7966;BME280;4028;43.272;26.932;2022-11-18T12:20:47;97851.00;;;19.29;100.00
7966;BME280;4028;43.272;26.932;2022-11-18T12:23:19;97845.16;;;19.20;100.00
7966;BME280;4028;43.272;26.932;2022-11-18T12:28:29;97842.00;;;19.11;100.00
7966;BME280;4028;43.272;26.932;2022-11-18T12:38:58;97822.19;;;19.24;100.00
7966;BME280;4028;43.272;26.932;2022-11-18T12:44:25;97830.34;;;19.17;100.00
7966;BME280;4028;43.272;26.932;2022-11-18T12:51:49;97828.16;;;19.26;100.00
7966;BME280;4028;43.272;26.932;2022-11-18T12:54:42;97828.22;;;19.08;100.00
7966;BME280;4028;43.272;26.932;2022-11-18T12:57:27;97836.50;;;19.18;100.00
7966;BME280;4028;43.272;26.932;2022-11-18T12:59:53;97828.25;;;19.19;100.00
7966;BME280;4028;43.272;26.932;2022-11-18T13:02:36;97844.34;;;19.19;100.00
7966;BME280;4028;43.272;26.932;2022-11-18T13:05:13;97834.41;;;19.08;100.00
7966;BME280;4028;43.272;26.932;2022-11-18T13:07:46;97825.75;;;18.94;100.00
7966;BME280;4028;43.272;26.932;2022-11-18T13:10:34;97830.78;;;19.03;100.00
7966;BME280;4028;43.272;26.932;2022-11-18T13:13:02;97823.03;;;18.83;100.00
7966;BME280;4028;43.272;26.932;2022-11-18T13:15:28;97816.53;;;18.90;100.00
7966;BME280;4028;43.272;26.932;2022-11-18T13:18:19;97818.03;;;18.86;100.00
7966;BME280;4028;43.272;26.932;2022-11-18T13:20:56;97800.91;;;18.87;100.00
7966;BME280;4028;43.272;26.932;2022-11-18T13:23:30;97819.84;;;19.04;100.00
7966;BME280;4028;43.272;26.932;2022-11-18T13:26:27;97820.53;;;19.00;100.00
7966;BME280;4028;43.272;26.932;2022-11-18T13:34:27;97818.72;;;18.82;100.00
7966;BME280;4028;43.272;26.932;2022-11-18T13:36:54;97822.09;;;18.77;100.00
7966;BME280;4028;43.272;26.932;2022-11-18T13:39:24;97822.75;;;18.73;100.00
7966;BME280;4028;43.272;26.932;2022-11-18T13:42:14;97826.31;;;18.66;100.00
7966;BME280;4028;43.272;26.932;2022-11-18T13:44:44;97811.72;;;18.69;100.00
7966;BME280;4028;43.272;26.932;2022-11-18T13:47:42;97807.97;;;18.70;100.00
7966;BME280;4028;43.272;26.932;2022-11-18T13:55:28;97804.25;;;18.53;100.00
7966;BME280;4028;43.272;26.932;2022-11-18T13:58:04;97798.31;;;18.51;100.00
7966;BME280;4028;43.272;26.932;2022-11-18T14:00:33;97792.06;;;18.57;100.00
7966;BME280;4028;43.272;26.932;2022-11-18T14:03:03;97792.97;;;18.51;100.00
7966;BME280;4028;43.272;26.932;2022-11-18T14:05:30;97810.31;;;18.48;100.00
7966;BME280;4028;43.272;26.932;2022-11-18T14:10:41;97794.03;;;18.31;100.00
7966;BME280;4028;43.272;26.932;2022-11-18T14:13:36;97809.00;;;18.39;100.00
7966;BME280;4028;43.272;26.932;2022-11-18T14:18:48;97800.97;;;18.39;100.00
7966;BME280;4028;43.272;26.932;2022-11-18T14:21:26;97793.50;;;18.41;100.00
7966;BME280;4028;43.272;26.932;2022-11-18T14:23:52;97786.09;;;18.43;100.00
7966;BME280;4028;43.272;26.932;2022-11-18T14:26:48;97779.31;;;18.40;100.00
7966;BME280;4028;43.272;26.932;2022-11-18T14:29:15;97771.91;;;18.24;100.00
7966;BME280;4028;43.272;26.932;2022-11-18T14:34:35;97784.34;;;18.18;100.00
7966;BME280;4028;43.272;26.932;2022-11-18T14:37:05;97790.00;;;18.10;100.00
7966;BME280;4028;43.272;26.932;2022-11-18T14:39:33;97779.13;;;18.05;100.00
7966;BME280;4028;43.272;26.932;2022-11-18T14:42:00;97786.81;;;18.02;100.00
7966;BME280;4028;43.272;26.932;2022-11-18T14:44:26;97777.81;;;17.96;100.00
7966;BME280;4028;43.272;26.932;2022-11-18T14:47:00;97780.81;;;17.88;100.00
7966;BME280;4028;43.272;26.932;2022-11-18T14:49:28;97771.81;;;17.82;100.00
7966;BME280;4028;43.272;26.932;2022-11-18T14:51:56;97784.44;;;17.75;100.00
7966;BME280;4028;43.272;26.932;2022-11-18T14:54:24;97780.84;;;17.63;100.00
7966;BME280;4028;43.272;26.932;2022-11-18T14:56:51;97769.72;;;17.66;100.00
7966;BME280;4028;43.272;26.932;2022-11-18T14:59:18;97765.16;;;17.66;100.00
7966;BME280;4028;43.272;26.932;2022-11-18T15:01:45;97769.16;;;17.57;100.00
7966;BME280;4028;43.272;26.932;2022-11-18T15:04:11;97752.59;;;17.49;100.00
7966;BME280;4028;43.272;26.932;2022-11-18T15:06:37;97757.63;;;17.38;100.00
7966;BME280;4028;43.272;26.932;2022-11-18T15:09:05;97762.00;;;17.33;100.00
7966;BME280;4028;43.272;26.932;2022-11-18T15:11:32;97752.44;;;17.25;100.00
7966;BME280;4028;43.272;26.932;2022-11-18T15:13:57;97758.38;;;17.27;100.00
7966;BME280;4028;43.272;26.932;2022-11-18T15:16:26;97760.44;;;17.25;100.00
7966;BME280;4028;43.272;26.932;2022-11-18T15:19:03;97752.16;;;17.08;100.00
7966;BME280;4028;43.272;26.932;2022-11-18T15:21:29;97747.69;;;17.02;100.00
7966;BME280;4028;43.272;26.932;2022-11-18T15:23:55;97748.97;;;17.00;100.00